Time;durP1;ratioP1;P1;durP2;ratioP2;P2;SDS_P1;SDS_P2;PMS_P1;PMS_P2;Temp;Humidity;BMP_temperature;BMP_pressure;BME280_temperature;BME280_humidity;BME280_pressure;Samples;Min_cycle;Max_cycle;Signal;HPM_P1;HPM_P2
2023/10/31 05:53:47;;;;;;;15.50;8.20;;;;;;;12.80;100.00;100195.17;111906;1244;23284;-58
2023/10/31 05:56:14;;;;;;;11.10;6.90;;;;;;;12.86;100.00;100199.66;112799;1240;22474;-58
2023/10/31 05:58:41;;;;;;;13.00;6.30;;;;;;;12.92;100.00;100201.36;112754;1247;23124;-59
2023/10/31 06:01:08;;;;;;;9.00;5.80;;;;;;;12.99;100.00;100203.55;112733;1241;23300;-59
2023/10/31 06:03:35;;;;;;;11.50;5.40;;;;;;;13.04;100.00;100206.13;112762;1238;22801;-59
2023/10/31 06:06:02;;;;;;;14.30;5.30;;;;;;;13.11;100.00;100210.42;112749;1245;22482;-59
2023/10/31 06:08:29;;;;;;;10.70;5.00;;;;;;;13.18;100.00;100210.52;112782;1247;22748;-56
2023/10/31 06:10:56;;;;;;;12.60;5.70;;;;;;;13.25;100.00;100210.81;112392;1247;22535;-55
2023/10/31 06:13:25;;;;;;;10.90;5.20;;;;;;;13.33;100.00;100213.51;112595;1240;23342;-55
2023/10/31 06:15:53;;;;;;;11.10;4.90;;;;;;;13.38;100.00;100213.10;110659;1236;24215;-58
2023/10/31 06:18:21;;;;;;;6.90;4.30;;;;;;;13.42;100.00;100210.77;112730;1247;22356;-58
2023/10/31 06:20:48;;;;;;;10.90;5.70;;;;;;;13.46;100.00;100207.58;112562;1244;22986;-59
2023/10/31 06:23:15;;;;;;;13.20;5.10;;;;;;;13.50;100.00;100208.20;112601;1247;22423;-59
2023/10/31 06:25:42;;;;;;;13.00;5.20;;;;;;;13.52;100.00;100209.77;112218;1248;22252;-55
2023/10/31 06:28:08;;;;;;;10.80;5.70;;;;;;;13.56;100.00;100215.67;112667;1240;22362;-55
2023/10/31 06:30:37;;;;;;;8.70;5.10;;;;;;;13.62;100.00;100221.04;112571;1241;22230;-55
2023/10/31 06:33:08;;;;;;;9.00;5.20;;;;;;;13.68;100.00;100226.89;112091;1250;22483;-54
2023/10/31 06:35:35;;;;;;;6.20;4.50;;;;;;;13.76;100.00;100222.59;112534;1240;22541;-54
2023/10/31 06:38:02;;;;;;;8.90;5.60;;;;;;;13.86;100.00;100223.14;112282;1248;22359;-54
2023/10/31 06:40:30;;;;;;;12.60;5.10;;;;;;;13.95;100.00;100222.48;112287;1246;22931;-54
2023/10/31 06:42:57;;;;;;;10.10;3.90;;;;;;;14.04;100.00;100225.49;112144;1249;22295;-54
2023/10/31 06:45:24;;;;;;;10.50;3.80;;;;;;;14.15;100.00;100224.11;112437;1244;22248;-54
2023/10/31 06:47:51;;;;;;;13.60;4.90;;;;;;;14.24;100.00;100225.36;112508;1247;22383;-53
2023/10/31 06:50:17;;;;;;;5.90;4.10;;;;;;;14.32;100.00;100225.58;112534;1247;22686;-54
2023/10/31 06:52:47;;;;;;;9.80;4.20;;;;;;;14.40;100.00;100219.66;112558;1250;22346;-57
2023/10/31 06:55:13;;;;;;;10.70;5.10;;;;;;;14.48;100.00;100219.90;112565;1250;22371;-57
2023/10/31 06:57:42;;;;;;;13.90;4.00;;;;;;;14.57;100.00;100216.77;112513;1250;22462;-57
2023/10/31 07:00:14;;;;;;;8.10;4.20;;;;;;;14.67;100.00;100216.05;112367;1250;22355;-57
2023/10/31 07:02:41;;;;;;;8.00;4.20;;;;;;;14.77;100.00;100215.70;112744;1241;22388;-58
2023/10/31 07:05:08;;;;;;;11.60;5.70;;;;;;;14.85;100.00;100220.46;112544;1238;22419;-57
2023/10/31 07:07:35;;;;;;;10.60;6.10;;;;;;;14.96;100.00;100220.09;112722;1250;23621;-58
2023/10/31 07:10:02;;;;;;;8.80;5.20;;;;;;;15.04;100.00;100217.65;112720;1240;22372;-57
2023/10/31 07:12:33;;;;;;;9.70;5.30;;;;;;;15.09;100.00;100220.18;112716;1247;22364;-57
2023/10/31 07:15:04;;;;;;;11.40;6.30;;;;;;;15.15;100.00;100213.04;112353;1248;22411;-57
2023/10/31 07:17:31;;;;;;;10.00;5.80;;;;;;;15.20;100.00;100212.05;112470;1250;23343;-57
2023/10/31 07:19:59;;;;;;;11.50;6.50;;;;;;;15.28;100.00;100213.33;112390;1247;22782;-54
2023/10/31 07:22:31;;;;;;;11.50;7.90;;;;;;;15.34;100.00;100210.53;112048;1250;22431;-57
2023/10/31 07:24:59;;;;;;;9.60;6.90;;;;;;;15.41;100.00;100213.02;111625;1250;22406;-57
2023/10/31 07:27:34;;;;;;;15.60;7.20;;;;;;;15.48;100.00;100208.14;112073;1250;22278;-58
2023/10/31 07:30:07;;;;;;;12.50;8.60;;;;;;;15.56;100.00;100202.52;112514;1250;22774;-58
2023/10/31 07:32:34;;;;;;;9.60;6.00;;;;;;;15.64;100.00;100207.12;112413;1248;22814;-58
2023/10/31 07:35:01;;;;;;;9.80;4.60;;;;;;;15.73;100.00;100207.78;112300;1250;23177;-57
2023/10/31 07:37:29;;;;;;;8.10;4.50;;;;;;;15.82;100.00;100204.96;112452;1247;23657;-57
2023/10/31 07:40:13;;;;;;;6.80;3.70;;;;;;;15.91;100.00;100207.75;112376;1250;22362;-58
2023/10/31 07:42:46;;;;;;;9.20;4.90;;;;;;;16.01;100.00;100211.02;112584;1250;22215;-54
2023/10/31 07:45:13;;;;;;;11.20;3.70;;;;;;;16.11;100.00;100212.73;111847;1242;25476;-54
2023/10/31 07:47:45;;;;;;;9.20;4.60;;;;;;;16.21;100.00;100209.32;112799;1241;22387;-55
2023/10/31 07:50:13;;;;;;;11.80;4.10;;;;;;;16.31;100.00;100206.06;112720;1242;23027;-54
2023/10/31 07:52:40;;;;;;;8.20;3.50;;;;;;;16.43;100.00;100202.77;112656;1250;22220;-54
2023/10/31 07:55:07;;;;;;;6.30;3.90;;;;;;;16.55;100.00;100207.05;112754;1250;22371;-54
2023/10/31 07:57:33;;;;;;;9.20;4.00;;;;;;;16.65;100.00;100208.00;112745;1248;22382;-55
2023/10/31 08:00:00;;;;;;;6.10;3.30;;;;;;;16.75;100.00;100207.95;112754;1241;22339;-55
2023/10/31 08:02:27;;;;;;;10.00;4.20;;;;;;;16.84;100.00;100203.16;112683;1243;23168;-55
2023/10/31 08:04:54;;;;;;;6.00;3.40;;;;;;;16.93;100.00;100202.02;112717;1250;23167;-54
2023/10/31 08:07:21;;;;;;;10.10;3.90;;;;;;;17.02;100.00;100201.77;112378;1250;22527;-54
2023/10/31 08:09:47;;;;;;;7.80;3.50;;;;;;;17.14;100.00;100198.79;111799;1250;22475;-55
2023/10/31 08:12:15;;;;;;;4.90;2.90;;;;;;;17.24;100.00;100199.55;112494;1250;23128;-58
2023/10/31 08:14:43;;;;;;;5.20;2.90;;;;;;;17.35;100.00;100194.66;112237;1250;22584;-57
2023/10/31 08:17:12;;;;;;;9.20;3.40;;;;;;;17.45;100.00;100196.30;111397;1250;23236;-57
2023/10/31 08:19:40;;;;;;;4.50;3.50;;;;;;;17.54;100.00;100193.04;112397;1250;22380;-55
2023/10/31 08:22:07;;;;;;;10.60;3.20;;;;;;;17.63;100.00;100194.86;112277;1241;23107;-58
2023/10/31 08:24:36;;;;;;;9.10;3.20;;;;;;;17.72;100.00;100193.20;112337;1240;22442;-58
2023/10/31 08:27:07;;;;;;;7.30;4.10;;;;;;;17.79;99.94;100187.15;112328;1250;22518;-56
2023/10/31 08:29:33;;;;;;;5.10;3.20;;;;;;;17.85;99.47;100184.52;112056;1247;22734;-58
2023/10/31 08:32:01;;;;;;;12.90;4.80;;;;;;;17.90;97.68;100192.11;112387;1250;22430;-54
2023/10/31 08:34:28;;;;;;;8.90;4.20;;;;;;;17.95;98.00;100186.86;112626;1250;22369;-55
2023/10/31 08:36:57;;;;;;;7.80;3.30;;;;;;;18.02;97.36;100186.27;112515;1250;22436;-55
2023/10/31 08:39:57;;;;;;;5.90;2.90;;;;;;;18.12;96.54;100184.70;112292;1250;23311;-58
2023/10/31 08:42:27;;;;;;;7.50;3.30;;;;;;;18.23;95.72;100186.48;111340;1250;22884;-56
2023/10/31 08:44:56;;;;;;;8.80;2.70;;;;;;;18.31;93.69;100189.73;112332;1239;22449;-57
2023/10/31 08:47:23;;;;;;;5.90;2.80;;;;;;;18.35;92.29;100186.42;112728;1250;22374;-57
2023/10/31 08:49:51;;;;;;;5.70;3.20;;;;;;;18.39;91.65;100189.13;112192;1250;23244;-57
2023/10/31 08:52:19;;;;;;;5.40;3.40;;;;;;;18.44;90.83;100194.23;112054;1250;23254;-57
2023/10/31 08:54:46;;;;;;;4.80;2.70;;;;;;;18.50;90.29;100187.66;112337;1241;23481;-57
2023/10/31 08:57:14;;;;;;;11.10;4.30;;;;;;;18.59;88.37;100191.95;112436;1250;22254;-54
2023/10/31 08:59:40;;;;;;;8.80;4.30;;;;;;;18.65;86.76;100188.94;112424;1250;23188;-55
2023/10/31 09:02:07;;;;;;;7.90;3.30;;;;;;;18.72;86.13;100188.71;112375;1250;22914;-57
2023/10/31 09:04:53;;;;;;;4.80;2.70;;;;;;;18.82;85.15;100185.34;112348;1250;23139;-57
2023/10/31 09:07:25;;;;;;;5.00;2.90;;;;;;;18.93;83.66;100178.42;112389;1250;22389;-57
2023/10/31 09:10:11;;;;;;;8.10;3.50;;;;;;;18.99;82.38;100179.79;112411;1250;22730;-58
2023/10/31 09:12:50;;;;;;;7.00;4.30;;;;;;;19.05;82.82;100170.38;112673;1250;23486;-57
2023/10/31 09:19:43;;;;;;;5.20;3.50;;;;;;;19.34;79.64;100167.52;112652;1250;22245;-57
2023/10/31 09:38:15;;;;;;;7.10;3.30;;;;;;;19.84;74.04;100121.89;111402;1250;23259;-58
2023/10/31 09:45:41;;;;;;;5.90;3.30;;;;;;;20.08;73.60;100111.14;112603;1250;22376;-58
2023/10/31 09:49:14;;;;;;;5.70;3.50;;;;;;;20.24;73.07;100103.75;111787;1250;23128;-58
2023/10/31 09:52:53;;;;;;;5.70;3.30;;;;;;;20.50;71.77;100104.95;112687;1250;23210;-57
2023/10/31 09:56:01;;;;;;;8.50;3.80;;;;;;;20.77;70.13;100101.44;112478;1250;22453;-58
2023/10/31 09:58:30;;;;;;;9.70;3.90;;;;;;;21.04;69.95;100093.83;112302;1250;23640;-58
2023/10/31 10:01:13;;;;;;;5.90;2.90;;;;;;;21.46;69.39;100088.34;112469;1250;22406;-58
2023/10/31 10:04:26;;;;;;;7.50;3.60;;;;;;;22.05;66.59;100085.08;112472;1250;23039;-58
2023/10/31 10:07:36;;;;;;;11.40;3.60;;;;;;;22.54;64.80;100076.86;112112;1250;22448;-57
2023/10/31 10:10:09;;;;;;;7.80;4.10;;;;;;;22.89;63.52;100078.75;112516;1250;22909;-59
2023/10/31 10:12:36;;;;;;;6.50;3.40;;;;;;;23.21;62.52;100071.30;112537;1250;22817;-55
2023/10/31 10:15:04;;;;;;;7.50;4.00;;;;;;;23.53;61.50;100060.95;112432;1250;22260;-55
2023/10/31 10:17:31;;;;;;;11.30;4.70;;;;;;;23.84;60.21;100060.78;112699;1250;22244;-55
2023/10/31 10:20:09;;;;;;;9.60;3.80;;;;;;;24.06;59.49;100057.17;112480;1250;22442;-55
2023/10/31 10:22:38;;;;;;;6.20;4.10;;;;;;;24.28;58.94;100053.01;112440;1250;23478;-58
2023/10/31 10:25:11;;;;;;;10.80;3.70;;;;;;;24.51;58.22;100048.25;112265;1250;22705;-55
2023/10/31 10:27:38;;;;;;;12.10;4.40;;;;;;;24.68;56.82;100048.41;112555;1250;22969;-55
2023/10/31 10:30:10;;;;;;;9.50;3.70;;;;;;;24.79;54.22;100045.94;112541;1250;22252;-54
2023/10/31 10:32:37;;;;;;;5.80;3.60;;;;;;;24.72;54.03;100038.38;112330;1248;23354;-55
2023/10/31 10:35:06;;;;;;;11.30;3.90;;;;;;;24.65;53.87;100037.36;112304;1250;22365;-58
2023/10/31 10:37:39;;;;;;;5.70;3.30;;;;;;;24.75;54.21;100030.84;112147;1250;22289;-54
2023/10/31 10:40:07;;;;;;;12.20;4.40;;;;;;;24.95;53.02;100029.60;112062;1250;22711;-55
2023/10/31 10:42:56;;;;;;;12.70;4.40;;;;;;;25.15;52.30;100033.52;112316;1250;22801;-54
2023/10/31 10:45:43;;;;;;;7.20;3.60;;;;;;;25.35;51.39;100029.20;112137;1250;22519;-58
2023/10/31 10:48:12;;;;;;;7.60;4.10;;;;;;;25.51;51.12;100022.98;112337;1250;22563;-58
2023/10/31 10:50:52;;;;;;;6.40;3.80;;;;;;;25.76;50.50;100015.58;112624;1250;22399;-58
2023/10/31 10:53:26;;;;;;;9.40;3.10;;;;;;;25.99;48.28;100006.88;112595;1250;23035;-59
2023/10/31 10:56:00;;;;;;;8.90;3.60;;;;;;;26.13;47.13;100014.00;112613;1250;22355;-58
2023/10/31 10:58:32;;;;;;;4.20;2.60;;;;;;;26.25;45.72;100014.21;112530;1250;22224;-58
2023/10/31 11:00:59;;;;;;;5.90;2.70;;;;;;;26.25;45.30;100014.35;112489;1250;22375;-58
2023/10/31 11:03:27;;;;;;;6.20;2.60;;;;;;;26.23;44.98;100013.58;112359;1250;22418;-58
2023/10/31 11:06:03;;;;;;;8.80;3.00;;;;;;;26.24;44.10;100015.15;112489;1245;22350;-58
2023/10/31 11:08:32;;;;;;;6.70;2.50;;;;;;;26.19;44.36;100009.27;112163;1250;22273;-58
2023/10/31 11:10:59;;;;;;;11.60;3.00;;;;;;;26.19;43.42;100008.20;112340;1250;22393;-58
2023/10/31 11:13:26;;;;;;;7.60;2.80;;;;;;;26.21;44.30;99998.94;112508;1250;22357;-58
2023/10/31 11:15:55;;;;;;;8.70;3.10;;;;;;;26.36;44.65;99997.58;112614;1250;22255;-58
2023/10/31 11:18:23;;;;;;;7.80;2.80;;;;;;;26.49;43.38;99995.92;112467;1250;22243;-58
2023/10/31 11:20:50;;;;;;;7.60;2.70;;;;;;;26.44;42.37;99991.80;112324;1250;22302;-55
2023/10/31 11:23:20;;;;;;;12.50;3.10;;;;;;;26.35;42.91;99992.95;112364;1250;22187;-55
2023/10/31 11:25:53;;;;;;;4.20;2.30;;;;;;;26.24;42.06;99992.12;112157;1246;22452;-54
2023/10/31 11:28:20;;;;;;;6.20;2.60;;;;;;;25.95;42.34;99982.14;112566;1250;22957;-57
2023/10/31 11:30:49;;;;;;;7.30;2.50;;;;;;;25.75;43.18;99981.39;112013;1250;22398;-57
2023/10/31 11:33:20;;;;;;;7.70;2.50;;;;;;;25.63;43.39;99969.81;112454;1250;22429;-55
2023/10/31 11:35:50;;;;;;;4.90;2.70;;;;;;;25.63;43.53;99972.54;112473;1250;22403;-57
2023/10/31 11:38:17;;;;;;;5.20;2.20;;;;;;;25.62;42.59;99966.69;112634;1250;23673;-57
2023/10/31 11:40:44;;;;;;;6.50;2.40;;;;;;;25.46;41.87;99968.83;112367;1250;22471;-58
2023/10/31 11:43:11;;;;;;;7.70;2.80;;;;;;;25.17;42.40;99962.23;112625;1250;23178;-57
2023/10/31 11:45:54;;;;;;;7.60;2.30;;;;;;;24.88;42.99;99962.46;112304;1250;22365;-57
2023/10/31 11:48:48;;;;;;;29.80;3.40;;;;;;;24.59;44.14;99963.40;111115;1250;22409;-56
2023/10/31 11:51:15;;;;;;;4.50;2.30;;;;;;;24.43;45.26;99954.44;112591;1242;22343;-56
2023/10/31 11:53:43;;;;;;;11.40;3.10;;;;;;;24.31;45.67;99956.77;112793;1249;22349;-57
2023/10/31 11:56:19;;;;;;;11.70;3.30;;;;;;;24.17;46.56;99951.39;112766;1250;23316;-58
2023/10/31 11:58:55;;;;;;;6.40;3.00;;;;;;;24.13;47.48;99946.27;112788;1239;22504;-57
2023/10/31 12:01:23;;;;;;;8.70;2.70;;;;;;;24.18;47.54;99943.70;112824;1250;23128;-57
2023/10/31 12:03:58;;;;;;;13.70;2.80;;;;;;;24.11;47.95;99938.04;112409;1249;22404;-54
2023/10/31 12:06:27;;;;;;;8.80;2.50;;;;;;;24.04;48.12;99936.52;112331;1249;22398;-54
2023/10/31 12:08:59;;;;;;;25.50;2.80;;;;;;;23.92;48.26;99927.80;112611;1239;22295;-54
2023/10/31 12:11:28;;;;;;;10.20;2.40;;;;;;;23.81;48.35;99924.21;112005;1249;23016;-58
2023/10/31 12:13:57;;;;;;;7.80;2.80;;;;;;;23.71;48.49;99928.05;112701;1234;22350;-59
2023/10/31 12:16:25;;;;;;;8.60;2.10;;;;;;;23.55;48.44;99924.84;112666;1249;22431;-55
2023/10/31 12:18:57;;;;;;;7.60;2.70;;;;;;;23.43;48.72;99923.10;112589;1243;22403;-59
2023/10/31 12:21:42;;;;;;;8.00;2.40;;;;;;;23.31;48.41;99920.02;112488;1249;22721;-59
2023/10/31 12:24:10;;;;;;;7.40;2.60;;;;;;;23.25;49.11;99918.10;112668;1249;22372;-62
2023/10/31 12:26:39;;;;;;;9.40;3.00;;;;;;;23.36;48.98;99917.63;112608;1249;22340;-59
2023/10/31 12:29:08;;;;;;;11.00;2.60;;;;;;;23.52;48.53;99920.21;112651;1249;22418;-59
2023/10/31 12:31:34;;;;;;;6.90;2.30;;;;;;;23.61;48.30;99922.36;112594;1249;22704;-60
2023/10/31 12:34:07;;;;;;;7.10;2.40;;;;;;;23.56;48.42;99919.83;112672;1249;22334;-60
2023/10/31 12:36:35;;;;;;;7.10;2.50;;;;;;;23.54;48.91;99914.77;112669;1249;22250;-59
2023/10/31 12:39:03;;;;;;;7.70;2.30;;;;;;;23.50;49.08;99915.01;112741;1249;22380;-59
2023/10/31 12:41:31;;;;;;;10.60;3.20;;;;;;;23.38;49.77;99915.16;112484;1249;23337;-60
2023/10/31 12:44:00;;;;;;;5.70;2.70;;;;;;;23.27;50.38;99911.38;112840;1242;22478;-59
2023/10/31 12:46:31;;;;;;;7.80;2.80;;;;;;;23.24;51.11;99913.33;112660;1249;22203;-61
2023/10/31 12:48:58;;;;;;;7.90;3.00;;;;;;;23.33;51.78;99912.44;112790;1249;22332;-59
2023/10/31 12:51:25;;;;;;;10.00;2.80;;;;;;;23.43;52.53;99912.56;112773;1249;22241;-59
2023/10/31 12:53:52;;;;;;;10.50;3.40;;;;;;;23.44;53.22;99912.14;112634;1249;22527;-59
2023/10/31 12:56:39;;;;;;;7.90;3.30;;;;;;;23.31;53.32;99908.30;112552;1249;23002;-58
2023/10/31 12:59:10;;;;;;;12.10;3.00;;;;;;;23.10;54.18;99905.83;112646;1249;22238;-58
2023/10/31 13:01:42;;;;;;;11.20;2.90;;;;;;;22.93;54.59;99907.99;112649;1249;22922;-59
2023/10/31 13:04:09;;;;;;;6.70;2.70;;;;;;;22.87;55.15;99907.96;112673;1249;22351;-60
2023/10/31 13:06:38;;;;;;;6.30;2.60;;;;;;;23.01;54.85;99908.29;112661;1249;22381;-61
2023/10/31 13:09:11;;;;;;;7.90;2.40;;;;;;;22.98;54.68;99903.63;112738;1241;22383;-58
2023/10/31 13:11:40;;;;;;;7.10;3.20;;;;;;;22.79;55.03;99906.98;112417;1249;24936;-59
2023/10/31 13:14:08;;;;;;;6.60;2.40;;;;;;;22.58;55.60;99906.74;112611;1236;22416;-59
2023/10/31 13:16:35;;;;;;;5.30;2.10;;;;;;;22.41;55.77;99903.81;112695;1249;22978;-59
2023/10/31 13:19:02;;;;;;;6.00;2.60;;;;;;;22.33;56.14;99903.53;112681;1249;22343;-59
2023/10/31 13:21:28;;;;;;;7.60;2.40;;;;;;;22.31;56.12;99902.37;112740;1249;23127;-59
2023/10/31 13:23:55;;;;;;;8.20;2.40;;;;;;;22.30;55.55;99899.41;112762;1249;22575;-60
2023/10/31 13:26:22;;;;;;;8.70;2.50;;;;;;;22.34;55.62;99903.13;112791;1249;22401;-60
2023/10/31 13:28:49;;;;;;;8.60;2.90;;;;;;;22.46;55.25;99902.08;112802;1249;22981;-59
2023/10/31 13:31:17;;;;;;;8.70;3.00;;;;;;;22.45;55.18;99899.13;112823;1249;22375;-59
2023/10/31 13:33:44;;;;;;;11.80;3.50;;;;;;;22.32;55.94;99900.88;112763;1249;22353;-59
2023/10/31 13:36:12;;;;;;;10.10;2.90;;;;;;;22.24;56.64;99901.37;112802;1249;22181;-59
2023/10/31 13:38:38;;;;;;;7.00;2.80;;;;;;;22.17;57.21;99897.63;112780;1249;23048;-59
2023/10/31 13:41:05;;;;;;;19.70;4.10;;;;;;;22.09;58.55;99893.81;112734;1249;22489;-59
2023/10/31 13:43:32;;;;;;;10.70;4.20;;;;;;;21.99;60.16;99896.80;112795;1249;23129;-60
2023/10/31 13:45:59;;;;;;;14.00;3.90;;;;;;;21.89;61.62;99900.17;112812;1249;23183;-60
2023/10/31 13:48:26;;;;;;;12.10;3.40;;;;;;;21.84;62.75;99896.52;112865;1249;22417;-60
2023/10/31 13:50:53;;;;;;;13.70;3.80;;;;;;;21.78;63.60;99899.00;112802;1249;22398;-60
2023/10/31 13:53:19;;;;;;;16.40;3.80;;;;;;;21.67;64.46;99900.78;112794;1249;23062;-60
2023/10/31 13:55:46;;;;;;;13.30;3.70;;;;;;;21.59;65.39;99894.48;112850;1249;22446;-60
2023/10/31 13:58:13;;;;;;;11.90;4.20;;;;;;;21.53;65.86;99895.84;112834;1249;22367;-60
2023/10/31 14:00:40;;;;;;;10.40;4.10;;;;;;;21.47;66.15;99899.19;112620;1249;260725;-60
2023/10/31 14:03:07;;;;;;;11.30;4.00;;;;;;;21.39;66.36;99901.01;112774;1249;23103;-59
2023/10/31 14:05:34;;;;;;;16.20;4.10;;;;;;;21.27;65.28;99902.83;112789;1249;23579;-59
2023/10/31 14:08:01;;;;;;;14.10;4.50;;;;;;;21.14;64.23;99891.93;112846;1249;22862;-60
2023/10/31 14:10:28;;;;;;;14.70;4.10;;;;;;;21.07;63.91;99899.20;112718;1249;22397;-60
2023/10/31 14:12:55;;;;;;;14.70;3.80;;;;;;;21.02;63.86;99897.68;112317;1249;25327;-60
2023/10/31 14:15:22;;;;;;;9.20;3.60;;;;;;;20.94;63.07;99899.11;112527;1249;23202;-60
2023/10/31 14:17:50;;;;;;;11.60;3.90;;;;;;;20.86;62.85;99893.50;110372;1249;22632;-59
2023/10/31 14:20:17;;;;;;;15.40;3.90;;;;;;;20.79;62.86;99895.45;110383;1249;24211;-59
2023/10/31 14:22:50;;;;;;;10.30;3.70;;;;;;;20.67;63.00;99892.45;110470;1249;24287;-60
2023/10/31 14:25:17;;;;;;;20.40;3.80;;;;;;;20.54;63.56;99887.06;111807;1249;23032;-59
2023/10/31 14:27:44;;;;;;;8.50;3.70;;;;;;;20.36;64.28;99888.41;112919;1249;22523;-59
2023/10/31 14:30:12;;;;;;;15.10;3.70;;;;;;;20.15;65.33;99889.18;112943;1249;22457;-58
2023/10/31 14:32:39;;;;;;;12.60;4.00;;;;;;;19.97;66.36;99890.88;112667;1249;22474;-59
2023/10/31 14:35:06;;;;;;;18.40;4.50;;;;;;;19.81;67.30;99889.70;112050;1237;22506;-60
2023/10/31 14:37:34;;;;;;;17.50;4.20;;;;;;;19.65;67.94;99890.91;112915;1249;22401;-61
2023/10/31 14:40:03;;;;;;;15.40;4.40;;;;;;;19.50;68.56;99892.58;112190;1249;22521;-60
2023/10/31 14:42:30;;;;;;;28.30;4.90;;;;;;;19.37;68.98;99892.63;111616;1238;23146;-60
2023/10/31 14:44:57;;;;;;;19.70;4.70;;;;;;;19.24;69.65;99894.21;112354;1249;22270;-60
2023/10/31 14:47:24;;;;;;;13.20;4.60;;;;;;;19.12;70.05;99898.95;112624;1249;22407;-60
